sensor_id;sensor_type;location;lat;lon;timestamp;pressure;altitude;pressure_sealevel;temperature;humidity
21730;BME280;11027;51.030;13.812;2022-10-30T00:00:31;100657.91;;;14.69;87.86
21730;BME280;11027;51.030;13.812;2022-10-30T00:02:56;100649.03;;;14.67;87.78
21730;BME280;11027;51.030;13.812;2022-10-30T00:05:23;100645.63;;;14.65;88.09
21730;BME280;11027;51.030;13.812;2022-10-30T00:07:49;100649.41;;;14.64;87.81
21730;BME280;11027;51.030;13.812;2022-10-30T00:10:16;100639.28;;;14.64;87.93
21730;BME280;11027;51.030;13.812;2022-10-30T00:12:42;100643.47;;;14.60;88.07
21730;BME280;11027;51.030;13.812;2022-10-30T00:15:07;100647.44;;;14.57;88.30
21730;BME280;11027;51.030;13.812;2022-10-30T00:17:33;100645.09;;;14.54;88.12
21730;BME280;11027;51.030;13.812;2022-10-30T00:19:59;100639.13;;;14.51;88.53
21730;BME280;11027;51.030;13.812;2022-10-30T00:22:24;100632.81;;;14.50;88.52
21730;BME280;11027;51.030;13.812;2022-10-30T00:24:49;100638.66;;;14.47;88.50
21730;BME280;11027;51.030;13.812;2022-10-30T00:27:14;100642.47;;;14.46;88.49
21730;BME280;11027;51.030;13.812;2022-10-30T00:29:40;100639.06;;;14.44;88.73
21730;BME280;11027;51.030;13.812;2022-10-30T00:32:06;100643.69;;;14.44;88.72
21730;BME280;11027;51.030;13.812;2022-10-30T00:34:31;100633.97;;;14.41;88.84
21730;BME280;11027;51.030;13.812;2022-10-30T00:36:56;100633.13;;;14.40;89.17
21730;BME280;11027;51.030;13.812;2022-10-30T00:39:21;100624.25;;;14.38;89.05
21730;BME280;11027;51.030;13.812;2022-10-30T00:41:47;100628.00;;;14.37;89.15
21730;BME280;11027;51.030;13.812;2022-10-30T00:44:35;100611.97;;;14.34;89.28
21730;BME280;11027;51.030;13.812;2022-10-30T00:47:05;100613.66;;;14.35;89.33
21730;BME280;11027;51.030;13.812;2022-10-30T00:49:33;100617.88;;;14.38;89.51
21730;BME280;11027;51.030;13.812;2022-10-30T00:52:00;100615.38;;;14.36;89.65
21730;BME280;11027;51.030;13.812;2022-10-30T00:54:27;100618.94;;;14.37;89.39
21730;BME280;11027;51.030;13.812;2022-10-30T00:56:53;100627.34;;;14.35;89.60
21730;BME280;11027;51.030;13.812;2022-10-30T00:59:22;100612.81;;;14.35;89.89
21730;BME280;11027;51.030;13.812;2022-10-30T01:01:51;100606.69;;;14.33;89.63
21730;BME280;11027;51.030;13.812;2022-10-30T01:04:17;100606.88;;;14.31;89.46
21730;BME280;11027;51.030;13.812;2022-10-30T01:06:46;100606.41;;;14.28;89.63
21730;BME280;11027;51.030;13.812;2022-10-30T01:09:13;100605.97;;;14.24;89.82
21730;BME280;11027;51.030;13.812;2022-10-30T01:11:38;100593.47;;;14.21;89.97
21730;BME280;11027;51.030;13.812;2022-10-30T01:14:06;100585.66;;;14.18;90.20
21730;BME280;11027;51.030;13.812;2022-10-30T01:19:21;100586.44;;;14.12;90.39
21730;BME280;11027;51.030;13.812;2022-10-30T01:21:58;100594.00;;;14.10;90.62
21730;BME280;11027;51.030;13.812;2022-10-30T01:24:42;100589.72;;;14.08;90.38
21730;BME280;11027;51.030;13.812;2022-10-30T01:30:14;100597.69;;;14.03;90.69
21730;BME280;11027;51.030;13.812;2022-10-30T01:33:03;100595.16;;;14.01;90.96
21730;BME280;11027;51.030;13.812;2022-10-30T01:35:46;100585.03;;;14.01;90.77
21730;BME280;11027;51.030;13.812;2022-10-30T01:38:23;100589.28;;;14.04;90.61
21730;BME280;11027;51.030;13.812;2022-10-30T01:40:50;100586.75;;;14.03;90.29
21730;BME280;11027;51.030;13.812;2022-10-30T01:43:15;100581.25;;;14.03;90.56
21730;BME280;11027;51.030;13.812;2022-10-30T01:45:45;100574.72;;;14.04;90.59
21730;BME280;11027;51.030;13.812;2022-10-30T01:48:34;100576.63;;;14.03;90.27
21730;BME280;11027;51.030;13.812;2022-10-30T01:51:19;100572.88;;;14.04;90.59
21730;BME280;11027;51.030;13.812;2022-10-30T01:57:38;100571.91;;;13.97;90.50
21730;BME280;11027;51.030;13.812;2022-10-30T01:59:51;100575.72;;;13.96;90.52
21730;BME280;11027;51.030;13.812;2022-10-30T02:02:18;100573.34;;;13.93;90.79
21730;BME280;11027;51.030;13.812;2022-10-30T02:04:44;100583.66;;;13.91;90.63
21730;BME280;11027;51.030;13.812;2022-10-30T02:07:10;100578.16;;;13.91;90.89
21730;BME280;11027;51.030;13.812;2022-10-30T02:09:36;100579.00;;;13.91;90.83
21730;BME280;11027;51.030;13.812;2022-10-30T02:12:02;100577.34;;;13.90;90.50
21730;BME280;11027;51.030;13.812;2022-10-30T02:14:35;100573.75;;;13.90;90.50
21730;BME280;11027;51.030;13.812;2022-10-30T02:17:04;100573.09;;;13.88;90.67
21730;BME280;11027;51.030;13.812;2022-10-30T02:19:30;100570.53;;;13.86;90.58
21730;BME280;11027;51.030;13.812;2022-10-30T02:21:56;100573.47;;;13.85;90.94
21730;BME280;11027;51.030;13.812;2022-10-30T02:24:21;100568.00;;;13.85;90.76
21730;BME280;11027;51.030;13.812;2022-10-30T02:26:46;100569.69;;;13.86;91.13
21730;BME280;11027;51.030;13.812;2022-10-30T02:29:12;100564.59;;;13.83;91.01
21730;BME280;11027;51.030;13.812;2022-10-30T02:31:37;100570.06;;;13.83;91.37
21730;BME280;11027;51.030;13.812;2022-10-30T02:34:02;100573.47;;;13.85;90.90
21730;BME280;11027;51.030;13.812;2022-10-30T02:36:28;100569.31;;;13.89;90.83
21730;BME280;11027;51.030;13.812;2022-10-30T02:38:53;100562.81;;;13.90;90.73
21730;BME280;11027;51.030;13.812;2022-10-30T02:41:20;100561.75;;;13.91;90.93
21730;BME280;11027;51.030;13.812;2022-10-30T02:43:45;100561.75;;;13.91;90.47
21730;BME280;11027;51.030;13.812;2022-10-30T02:46:10;100565.13;;;13.93;90.46
21730;BME280;11027;51.030;13.812;2022-10-30T02:48:36;100567.50;;;13.96;90.16
21730;BME280;11027;51.030;13.812;2022-10-30T02:51:02;100563.06;;;13.95;90.25
21730;BME280;11027;51.030;13.812;2022-10-30T02:53:28;100558.41;;;13.95;90.21
21730;BME280;11027;51.030;13.812;2022-10-30T02:55:54;100564.28;;;13.92;90.33
21730;BME280;11027;51.030;13.812;2022-10-30T02:58:19;100561.75;;;13.91;90.39
21730;BME280;11027;51.030;13.812;2022-10-30T03:00:45;100556.66;;;13.88;90.43
21730;BME280;11027;51.030;13.812;2022-10-30T03:03:10;100554.94;;;13.87;90.73
21730;BME280;11027;51.030;13.812;2022-10-30T03:05:35;100557.88;;;13.85;91.46
21730;BME280;11027;51.030;13.812;2022-10-30T03:08:00;100554.47;;;13.83;91.44
21730;BME280;11027;51.030;13.812;2022-10-30T03:10:26;100566.31;;;13.84;91.63
21730;BME280;11027;51.030;13.812;2022-10-30T03:12:51;100562.91;;;13.82;91.57
21730;BME280;11027;51.030;13.812;2022-10-30T03:15:17;100565.66;;;13.82;91.67
21730;BME280;11027;51.030;13.812;2022-10-30T03:17:42;100560.84;;;13.84;91.70
21730;BME280;11027;51.030;13.812;2022-10-30T03:20:08;100556.66;;;13.88;91.53
21730;BME280;11027;51.030;13.812;2022-10-30T03:22:33;100553.72;;;13.89;91.47
21730;BME280;11027;51.030;13.812;2022-10-30T03:24:59;100556.91;;;13.93;91.29
21730;BME280;11027;51.030;13.812;2022-10-30T03:27:24;100545.78;;;13.94;91.49
21730;BME280;11027;51.030;13.812;2022-10-30T03:29:49;100563.44;;;13.92;91.16
21730;BME280;11027;51.030;13.812;2022-10-30T03:32:14;100557.97;;;13.92;91.65
21730;BME280;11027;51.030;13.812;2022-10-30T03:34:40;100568.94;;;13.92;91.54
21730;BME280;11027;51.030;13.812;2022-10-30T03:37:05;100572.69;;;13.91;91.60
21730;BME280;11027;51.030;13.812;2022-10-30T03:39:30;100563.63;;;13.90;91.75
21730;BME280;11027;51.030;13.812;2022-10-30T03:41:56;100562.41;;;13.93;91.68
21730;BME280;11027;51.030;13.812;2022-10-30T03:44:21;100557.97;;;13.92;91.70
21730;BME280;11027;51.030;13.812;2022-10-30T03:46:46;100560.72;;;13.92;92.02
21730;BME280;11027;51.030;13.812;2022-10-30T03:49:12;100565.13;;;13.93;91.91
21730;BME280;11027;51.030;13.812;2022-10-30T03:51:37;100559.66;;;13.93;92.09
21730;BME280;11027;51.030;13.812;2022-10-30T03:54:02;100565.13;;;13.93;92.17
21730;BME280;11027;51.030;13.812;2022-10-30T03:56:27;100560.50;;;13.93;91.88
21730;BME280;11027;51.030;13.812;2022-10-30T03:58:53;100564.09;;;13.94;92.11
21730;BME280;11027;51.030;13.812;2022-10-30T04:01:18;100558.63;;;13.94;91.87
21730;BME280;11027;51.030;13.812;2022-10-30T04:03:43;100566.84;;;13.94;92.01
21730;BME280;11027;51.030;13.812;2022-10-30T04:06:10;100560.50;;;13.93;92.10
21730;BME280;11027;51.030;13.812;2022-10-30T04:08:35;100552.50;;;13.92;91.63
21730;BME280;11027;51.030;13.812;2022-10-30T04:11:00;100560.91;;;13.90;91.79
21730;BME280;11027;51.030;13.812;2022-10-30T04:13:26;100560.06;;;13.90;91.52
21730;BME280;11027;51.030;13.812;2022-10-30T04:15:52;100564.88;;;13.88;91.55
21730;BME280;11027;51.030;13.812;2022-10-30T04:18:17;100551.56;;;13.85;91.79
21730;BME280;11027;51.030;13.812;2022-10-30T04:20:43;100552.63;;;13.84;91.82
21730;BME280;11027;51.030;13.812;2022-10-30T04:23:13;100551.97;;;13.82;91.73
21730;BME280;11027;51.030;13.812;2022-10-30T04:25:38;100546.66;;;13.80;91.75
21730;BME280;11027;51.030;13.812;2022-10-30T04:28:04;100535.91;;;13.78;91.88
21730;BME280;11027;51.030;13.812;2022-10-30T04:30:29;100534.59;;;13.74;91.73
21730;BME280;11027;51.030;13.812;2022-10-30T04:32:59;100534.97;;;13.71;92.22
21730;BME280;11027;51.030;13.812;2022-10-30T04:35:27;100524.41;;;13.68;92.28
21730;BME280;11027;51.030;13.812;2022-10-30T04:37:57;100507.97;;;13.68;92.05
21730;BME280;11027;51.030;13.812;2022-10-30T04:40:25;100512.16;;;13.64;92.10
21730;BME280;11027;51.030;13.812;2022-10-30T04:42:51;100504.97;;;13.63;92.60
21730;BME280;11027;51.030;13.812;2022-10-30T04:45:17;100505.34;;;13.60;92.64
21730;BME280;11027;51.030;13.812;2022-10-30T04:47:43;100516.69;;;13.57;92.64
21730;BME280;11027;51.030;13.812;2022-10-30T04:50:09;100529.34;;;13.58;93.12
21730;BME280;11027;51.030;13.812;2022-10-30T04:52:34;100526.59;;;13.58;92.92
21730;BME280;11027;51.030;13.812;2022-10-30T04:54:59;100525.94;;;13.56;93.04
21730;BME280;11027;51.030;13.812;2022-10-30T04:57:24;100516.22;;;13.53;93.29
21730;BME280;11027;51.030;13.812;2022-10-30T04:59:50;100513.69;;;13.52;93.43
21730;BME280;11027;51.030;13.812;2022-10-30T05:02:15;100517.44;;;13.51;93.35
21730;BME280;11027;51.030;13.812;2022-10-30T05:04:43;100518.69;;;13.48;93.09
21730;BME280;11027;51.030;13.812;2022-10-30T05:07:08;100515.75;;;13.50;93.15
21730;BME280;11027;51.030;13.812;2022-10-30T05:09:34;100519.16;;;13.52;92.95
21730;BME280;11027;51.030;13.812;2022-10-30T05:11:59;100518.97;;;13.53;92.68
21730;BME280;11027;51.030;13.812;2022-10-30T05:14:28;100515.00;;;13.56;92.84
21730;BME280;11027;51.030;13.812;2022-10-30T05:16:54;100516.50;;;13.58;92.72
21730;BME280;11027;51.030;13.812;2022-10-30T05:19:19;100509.13;;;13.59;92.61
21730;BME280;11027;51.030;13.812;2022-10-30T05:21:44;100507.44;;;13.58;92.50
21730;BME280;11027;51.030;13.812;2022-10-30T05:24:10;100509.53;;;13.56;92.67
21730;BME280;11027;51.030;13.812;2022-10-30T05:26:35;100516.22;;;13.53;92.88
21730;BME280;11027;51.030;13.812;2022-10-30T05:29:00;100520.84;;;13.53;93.12
21730;BME280;11027;51.030;13.812;2022-10-30T05:31:25;100519.16;;;13.52;93.29
21730;BME280;11027;51.030;13.812;2022-10-30T05:33:51;100520.84;;;13.53;93.24
21730;BME280;11027;51.030;13.812;2022-10-30T05:36:16;100524.63;;;13.52;93.32
21730;BME280;11027;51.030;13.812;2022-10-30T05:38:41;100532.66;;;13.53;92.99
21730;BME280;11027;51.030;13.812;2022-10-30T05:41:06;100519.16;;;13.52;92.94
21730;BME280;11027;51.030;13.812;2022-10-30T05:43:32;100523.56;;;13.53;93.25
21730;BME280;11027;51.030;13.812;2022-10-30T05:45:57;100526.13;;;13.54;93.51
21730;BME280;11027;51.030;13.812;2022-10-30T05:48:22;100524.88;;;13.57;93.55
21730;BME280;11027;51.030;13.812;2022-10-30T05:50:47;100523.88;;;13.58;93.50
21730;BME280;11027;51.030;13.812;2022-10-30T05:53:13;100521.78;;;13.60;93.44
21730;BME280;11027;51.030;13.812;2022-10-30T05:55:38;100525.19;;;13.62;93.28
21730;BME280;11027;51.030;13.812;2022-10-30T05:58:05;100532.34;;;13.63;93.05
21730;BME280;11027;51.030;13.812;2022-10-30T06:00:33;100528.56;;;13.64;92.98
21730;BME280;11027;51.030;13.812;2022-10-30T06:03:03;100527.34;;;13.67;93.25
21730;BME280;11027;51.030;13.812;2022-10-30T06:05:30;100529.03;;;13.68;93.20
21730;BME280;11027;51.030;13.812;2022-10-30T06:07:56;100518.94;;;13.68;92.81
21730;BME280;11027;51.030;13.812;2022-10-30T06:10:22;100518.94;;;13.68;93.12
21730;BME280;11027;51.030;13.812;2022-10-30T06:12:55;100522.31;;;13.70;93.02
21730;BME280;11027;51.030;13.812;2022-10-30T06:15:21;100516.84;;;13.70;93.14
21730;BME280;11027;51.030;13.812;2022-10-30T06:17:46;100515.59;;;13.73;92.97
21730;BME280;11027;51.030;13.812;2022-10-30T06:20:12;100524.66;;;13.73;93.08
21730;BME280;11027;51.030;13.812;2022-10-30T06:22:37;100527.41;;;13.73;93.04
21730;BME280;11027;51.030;13.812;2022-10-30T06:25:03;100521.94;;;13.73;93.16
21730;BME280;11027;51.030;13.812;2022-10-30T06:27:28;100525.53;;;13.74;93.13
21730;BME280;11027;51.030;13.812;2022-10-30T06:29:53;100525.31;;;13.75;93.23
21730;BME280;11027;51.030;13.812;2022-10-30T06:32:21;100532.50;;;13.76;93.03
21730;BME280;11027;51.030;13.812;2022-10-30T06:34:46;100529.59;;;13.78;92.88
21730;BME280;11027;51.030;13.812;2022-10-30T06:37:12;100533.81;;;13.80;93.20
21730;BME280;11027;51.030;13.812;2022-10-30T06:39:37;100533.03;;;13.87;92.53
21730;BME280;11027;51.030;13.812;2022-10-30T06:42:02;100527.84;;;13.92;92.31
21730;BME280;11027;51.030;13.812;2022-10-30T06:44:28;100534.41;;;13.97;92.20
21730;BME280;11027;51.030;13.812;2022-10-30T06:46:53;100545.84;;;14.01;92.17
21730;BME280;11027;51.030;13.812;2022-10-30T06:49:19;100553.69;;;14.04;92.13
21730;BME280;11027;51.030;13.812;2022-10-30T06:51:44;100551.13;;;14.03;91.59
21730;BME280;11027;51.030;13.812;2022-10-30T06:54:10;100556.44;;;14.04;91.56
21730;BME280;11027;51.030;13.812;2022-10-30T06:56:35;100558.56;;;14.09;91.84
21730;BME280;11027;51.030;13.812;2022-10-30T06:59:00;100559.03;;;14.12;91.83
21730;BME280;11027;51.030;13.812;2022-10-30T07:01:25;100558.63;;;14.15;91.62
21730;BME280;11027;51.030;13.812;2022-10-30T07:03:51;100563.75;;;14.18;91.05
21730;BME280;11027;51.030;13.812;2022-10-30T07:06:16;100559.94;;;14.19;91.10
21730;BME280;11027;51.030;13.812;2022-10-30T07:08:41;100556.16;;;14.20;91.42
21730;BME280;11027;51.030;13.812;2022-10-30T07:11:07;100559.56;;;14.23;91.14
21730;BME280;11027;51.030;13.812;2022-10-30T07:13:32;100557.84;;;14.21;91.03
21730;BME280;11027;51.030;13.812;2022-10-30T07:15:58;100555.34;;;14.20;91.00
21730;BME280;11027;51.030;13.812;2022-10-30T07:18:23;100558.25;;;14.18;90.88
21730;BME280;11027;51.030;13.812;2022-10-30T07:20:53;100555.53;;;14.18;91.38
21730;BME280;11027;51.030;13.812;2022-10-30T07:23:19;100558.25;;;14.18;91.27
21730;BME280;11027;51.030;13.812;2022-10-30T07:25:44;100558.25;;;14.18;91.58
21730;BME280;11027;51.030;13.812;2022-10-30T07:28:09;100565.03;;;14.23;91.13
21730;BME280;11027;51.030;13.812;2022-10-30T07:30:34;100554.94;;;14.23;91.04
21730;BME280;11027;51.030;13.812;2022-10-30T07:33:02;100559.56;;;14.23;91.29
21730;BME280;11027;51.030;13.812;2022-10-30T07:35:28;100562.13;;;14.24;91.47
21730;BME280;11027;51.030;13.812;2022-10-30T07:37:54;100568.91;;;14.28;91.28
21730;BME280;11027;51.030;13.812;2022-10-30T07:40:20;100572.06;;;14.32;91.56
21730;BME280;11027;51.030;13.812;2022-10-30T07:42:45;100563.47;;;14.35;91.40
21730;BME280;11027;51.030;13.812;2022-10-30T07:45:11;100563.47;;;14.35;91.56
21730;BME280;11027;51.030;13.812;2022-10-30T07:47:42;100559.31;;;14.39;91.53
21730;BME280;11027;51.030;13.812;2022-10-30T07:50:09;100569.84;;;14.42;91.43
21730;BME280;11027;51.030;13.812;2022-10-30T07:52:34;100564.00;;;14.45;91.44
21730;BME280;11027;51.030;13.812;2022-10-30T07:55:00;100570.78;;;14.49;91.15
21730;BME280;11027;51.030;13.812;2022-10-30T07:57:25;100570.41;;;14.52;91.05
21730;BME280;11027;51.030;13.812;2022-10-30T07:59:50;100570.00;;;14.55;91.30
21730;BME280;11027;51.030;13.812;2022-10-30T08:02:15;100571.53;;;14.58;91.08
21730;BME280;11027;51.030;13.812;2022-10-30T08:04:41;100570.69;;;14.57;90.53
21730;BME280;11027;51.030;13.812;2022-10-30T08:07:06;100567.25;;;14.55;90.48
21730;BME280;11027;51.030;13.812;2022-10-30T08:09:31;100560.78;;;14.56;90.37
21730;BME280;11027;51.030;13.812;2022-10-30T08:11:57;100566.25;;;14.56;90.25
21730;BME280;11027;51.030;13.812;2022-10-30T08:14:22;100577.88;;;14.58;90.54
21730;BME280;11027;51.030;13.812;2022-10-30T08:16:47;100563.75;;;14.62;90.21
21730;BME280;11027;51.030;13.812;2022-10-30T08:19:12;100566.50;;;14.62;90.05
21730;BME280;11027;51.030;13.812;2022-10-30T08:21:38;100552.78;;;14.62;90.05
21730;BME280;11027;51.030;13.812;2022-10-30T08:24:03;100554.88;;;14.59;90.42
21730;BME280;11027;51.030;13.812;2022-10-30T08:26:28;100560.16;;;14.61;90.37
21730;BME280;11027;51.030;13.812;2022-10-30T08:28:54;100560.34;;;14.59;90.29
21730;BME280;11027;51.030;13.812;2022-10-30T08:31:19;100553.19;;;14.58;90.14
21730;BME280;11027;51.030;13.812;2022-10-30T08:33:44;100563.56;;;14.63;89.95
21730;BME280;11027;51.030;13.812;2022-10-30T08:36:09;100557.88;;;14.65;90.10
21730;BME280;11027;51.030;13.812;2022-10-30T08:38:35;100557.88;;;14.65;89.88
21730;BME280;11027;51.030;13.812;2022-10-30T08:41:01;100566.75;;;14.67;90.25
21730;BME280;11027;51.030;13.812;2022-10-30T08:43:26;100553.69;;;14.69;90.09
21730;BME280;11027;51.030;13.812;2022-10-30T08:45:52;100563.22;;;14.73;89.43
21730;BME280;11027;51.030;13.812;2022-10-30T08:48:17;100552.91;;;14.75;90.32
21730;BME280;11027;51.030;13.812;2022-10-30T08:50:42;100548.72;;;14.79;89.90
21730;BME280;11027;51.030;13.812;2022-10-30T08:53:13;100548.31;;;14.82;90.04
21730;BME280;11027;51.030;13.812;2022-10-30T08:55:39;100555.09;;;14.86;89.84
21730;BME280;11027;51.030;13.812;2022-10-30T08:58:05;100550.91;;;14.90;90.19
21730;BME280;11027;51.030;13.812;2022-10-30T09:00:30;100550.50;;;14.93;89.87
21730;BME280;11027;51.030;13.812;2022-10-30T09:02:55;100555.59;;;14.96;89.58
21730;BME280;11027;51.030;13.812;2022-10-30T09:05:21;100551.38;;;15.00;89.79
21730;BME280;11027;51.030;13.812;2022-10-30T09:07:46;100550.59;;;15.07;89.78
21730;BME280;11027;51.030;13.812;2022-10-30T09:10:12;100553.59;;;15.12;89.38
21730;BME280;11027;51.030;13.812;2022-10-30T09:12:38;100542.88;;;15.17;89.37
21730;BME280;11027;51.030;13.812;2022-10-30T09:15:03;100537.59;;;15.22;89.16
21730;BME280;11027;51.030;13.812;2022-10-30T09:17:29;100538.91;;;15.26;89.14
21730;BME280;11027;51.030;13.812;2022-10-30T09:19:54;100542.94;;;15.30;88.85
21730;BME280;11027;51.030;13.812;2022-10-30T09:22:20;100539.78;;;15.33;88.53
21730;BME280;11027;51.030;13.812;2022-10-30T09:24:45;100537.28;;;15.38;88.34
21730;BME280;11027;51.030;13.812;2022-10-30T09:27:10;100545.75;;;15.44;88.31
21730;BME280;11027;51.030;13.812;2022-10-30T09:29:35;100550.00;;;15.46;88.08
21730;BME280;11027;51.030;13.812;2022-10-30T09:32:01;100555.94;;;15.50;88.28
21730;BME280;11027;51.030;13.812;2022-10-30T09:34:29;100550.00;;;15.53;88.12
21730;BME280;11027;51.030;13.812;2022-10-30T09:36:55;100545.81;;;15.57;88.10
21730;BME280;11027;51.030;13.812;2022-10-30T09:39:20;100558.06;;;15.61;87.89
21730;BME280;11027;51.030;13.812;2022-10-30T09:47:56;100562.34;;;15.70;87.74
21730;BME280;11027;51.030;13.812;2022-10-30T09:56:07;100564.94;;;15.78;87.63
21730;BME280;11027;51.030;13.812;2022-10-30T09:59:03;100563.69;;;15.81;87.67
21730;BME280;11027;51.030;13.812;2022-10-30T10:04:38;100563.31;;;15.91;87.17
21730;BME280;11027;51.030;13.812;2022-10-30T10:07:31;100557.41;;;15.94;87.44
21730;BME280;11027;51.030;13.812;2022-10-30T10:10:08;100554.88;;;15.99;87.28
21730;BME280;11027;51.030;13.812;2022-10-30T10:12:44;100551.09;;;16.07;87.19
21730;BME280;11027;51.030;13.812;2022-10-30T10:15:19;100554.50;;;16.15;87.01
21730;BME280;11027;51.030;13.812;2022-10-30T10:17:47;100556.84;;;16.25;87.10
21730;BME280;11027;51.030;13.812;2022-10-30T10:20:26;100554.31;;;16.37;86.55
21730;BME280;11027;51.030;13.812;2022-10-30T10:22:55;100552.00;;;16.54;85.96
21730;BME280;11027;51.030;13.812;2022-10-30T10:25:22;100547.59;;;16.73;85.78
21730;BME280;11027;51.030;13.812;2022-10-30T10:30:21;100542.28;;;17.05;84.63
21730;BME280;11027;51.030;13.812;2022-10-30T10:33:16;100543.09;;;17.18;83.99
21730;BME280;11027;51.030;13.812;2022-10-30T10:36:09;100543.28;;;17.30;83.54
21730;BME280;11027;51.030;13.812;2022-10-30T10:39:02;100540.13;;;17.33;83.10
21730;BME280;11027;51.030;13.812;2022-10-30T10:49:55;100542.22;;;17.38;83.32
21730;BME280;11027;51.030;13.812;2022-10-30T10:52:48;100547.69;;;17.45;83.29
21730;BME280;11027;51.030;13.812;2022-10-30T10:55:18;100542.56;;;17.55;83.07
21730;BME280;11027;51.030;13.812;2022-10-30T10:57:45;100538.94;;;17.61;82.63
21730;BME280;11027;51.030;13.812;2022-10-30T11:00:19;100532.38;;;17.62;82.59
21730;BME280;11027;51.030;13.812;2022-10-30T11:02:53;100535.56;;;17.59;82.04
21730;BME280;11027;51.030;13.812;2022-10-30T11:05:33;100528.16;;;17.53;82.33
21730;BME280;11027;51.030;13.812;2022-10-30T11:08:10;100534.56;;;17.47;81.92
21730;BME280;11027;51.030;13.812;2022-10-30T11:10:37;100533.28;;;17.43;82.04
21730;BME280;11027;51.030;13.812;2022-10-30T11:13:02;100529.91;;;17.40;82.43
21730;BME280;11027;51.030;13.812;2022-10-30T11:15:55;100524.41;;;17.40;82.40
21730;BME280;11027;51.030;13.812;2022-10-30T11:18:24;100527.38;;;17.46;82.41
21730;BME280;11027;51.030;13.812;2022-10-30T11:23:44;100522.63;;;17.66;82.66
21730;BME280;11027;51.030;13.812;2022-10-30T11:29:01;100518.91;;;17.92;81.56
21730;BME280;11027;51.030;13.812;2022-10-30T11:31:30;100520.75;;;18.05;81.35
21730;BME280;11027;51.030;13.812;2022-10-30T11:36:46;100517.66;;;18.27;81.23
21730;BME280;11027;51.030;13.812;2022-10-30T11:39:20;100512.91;;;18.34;80.75
21730;BME280;11027;51.030;13.812;2022-10-30T11:42:12;100513.72;;;18.41;80.48
21730;BME280;11027;51.030;13.812;2022-10-30T11:44:44;100509.00;;;18.48;80.25
21730;BME280;11027;51.030;13.812;2022-10-30T11:47:13;100504.72;;;18.52;80.01
21730;BME280;11027;51.030;13.812;2022-10-30T11:52:14;100506.13;;;18.62;79.65
21730;BME280;11027;51.030;13.812;2022-10-30T11:54:44;100507.97;;;18.68;79.13
21730;BME280;11027;51.030;13.812;2022-10-30T11:57:29;100503.25;;;18.75;78.75
21730;BME280;11027;51.030;13.812;2022-10-30T11:59:56;100506.38;;;18.85;78.40
21730;BME280;11027;51.030;13.812;2022-10-30T12:02:29;100507.75;;;18.94;78.33
21730;BME280;11027;51.030;13.812;2022-10-30T12:05:01;100513.63;;;19.05;78.19
21730;BME280;11027;51.030;13.812;2022-10-30T12:07:30;100502.88;;;19.15;78.15
21730;BME280;11027;51.030;13.812;2022-10-30T12:09:56;100501.50;;;19.24;77.48
21730;BME280;11027;51.030;13.812;2022-10-30T12:14:53;100503.28;;;19.37;76.93
21730;BME280;11027;51.030;13.812;2022-10-30T12:17:19;100496.56;;;19.45;76.54
21730;BME280;11027;51.030;13.812;2022-10-30T12:19:54;100494.38;;;19.53;76.24
21730;BME280;11027;51.030;13.812;2022-10-30T12:22:29;100497.66;;;19.62;76.02
21730;BME280;11027;51.030;13.812;2022-10-30T12:24:56;100500.09;;;19.70;75.68
21730;BME280;11027;51.030;13.812;2022-10-30T12:27:22;100510.84;;;19.78;75.53
21730;BME280;11027;51.030;13.812;2022-10-30T12:30:07;100496.47;;;19.88;75.61
21730;BME280;11027;51.030;13.812;2022-10-30T12:32:51;100496.75;;;19.98;74.58
21730;BME280;11027;51.030;13.812;2022-10-30T12:37:57;100486.56;;;20.11;73.37
21730;BME280;11027;51.030;13.812;2022-10-30T12:40:29;100486.47;;;20.17;73.27
21730;BME280;11027;51.030;13.812;2022-10-30T12:43:12;100478.44;;;20.28;72.80
21730;BME280;11027;51.030;13.812;2022-10-30T12:45:43;100471.47;;;20.37;72.38
21730;BME280;11027;51.030;13.812;2022-10-30T12:53:26;100476.13;;;20.67;70.98
21730;BME280;11027;51.030;13.812;2022-10-30T12:55:57;100470.22;;;20.75;70.58
21730;BME280;11027;51.030;13.812;2022-10-30T12:58:37;100475.41;;;20.83;69.91
21730;BME280;11027;51.030;13.812;2022-10-30T13:01:33;100477.81;;;20.91;69.97
21730;BME280;11027;51.030;13.812;2022-10-30T13:04:07;100470.91;;;21.06;69.93
21730;BME280;11027;51.030;13.812;2022-10-30T13:07:14;100468.38;;;21.16;69.38
21730;BME280;11027;51.030;13.812;2022-10-30T13:09:48;100455.34;;;21.28;68.65
21730;BME280;11027;51.030;13.812;2022-10-30T13:12:21;100454.59;;;21.45;68.42
21730;BME280;11027;51.030;13.812;2022-10-30T13:15:00;100458.41;;;21.67;67.11
21730;BME280;11027;51.030;13.812;2022-10-30T13:17:28;100458.63;;;21.94;66.69
21730;BME280;11027;51.030;13.812;2022-10-30T13:19:53;100454.13;;;22.22;65.50
21730;BME280;11027;51.030;13.812;2022-10-30T13:22:37;100447.13;;;22.48;63.52
21730;BME280;11027;51.030;13.812;2022-10-30T13:25:24;100457.19;;;22.71;62.68
21730;BME280;11027;51.030;13.812;2022-10-30T13:27:54;100452.47;;;22.72;62.56
21730;BME280;11027;51.030;13.812;2022-10-30T13:30:22;100443.31;;;22.54;62.05
21730;BME280;11027;51.030;13.812;2022-10-30T13:47:02;100445.00;;;21.93;62.93
21730;BME280;11027;51.030;13.812;2022-10-30T13:52:34;100448.41;;;21.83;62.81
21730;BME280;11027;51.030;13.812;2022-10-30T14:00:22;100453.97;;;21.54;63.52
21730;BME280;11027;51.030;13.812;2022-10-30T14:05:41;100450.44;;;21.59;63.24
21730;BME280;11027;51.030;13.812;2022-10-30T14:08:31;100446.75;;;21.53;63.27